createdAt,value
2022-12-31T00:00:36.512Z,1.73
2022-12-31T00:03:04.753Z,2.00
2022-12-31T00:05:33.874Z,1.83
2022-12-31T00:08:02.908Z,1.63
2022-12-31T00:10:34.426Z,1.80
2022-12-31T00:13:02.354Z,1.83
2022-12-31T00:15:30.564Z,1.83
2022-12-31T00:17:58.690Z,1.50
2022-12-31T00:20:26.684Z,1.63
2022-12-31T00:22:54.684Z,2.00
2022-12-31T00:25:22.825Z,1.60
2022-12-31T00:27:52.169Z,2.37
2022-12-31T00:30:20.242Z,1.47
2022-12-31T00:32:48.244Z,1.30
2022-12-31T00:35:16.296Z,1.50
2022-12-31T00:37:44.277Z,1.73
2022-12-31T00:40:13.056Z,2.23
2022-12-31T00:42:41.016Z,2.23
2022-12-31T00:45:11.484Z,1.77
2022-12-31T00:47:39.482Z,1.67
2022-12-31T00:50:08.344Z,1.53
2022-12-31T00:52:36.326Z,2.00
2022-12-31T00:55:04.496Z,1.53
2022-12-31T00:57:32.556Z,1.67
2022-12-31T01:00:00.807Z,2.40
2022-12-31T01:02:30.121Z,1.60
2022-12-31T01:04:58.147Z,1.40
2022-12-31T01:07:26.424Z,1.40
2022-12-31T01:09:54.781Z,1.30
2022-12-31T01:12:22.690Z,1.80
2022-12-31T01:14:50.802Z,1.53
2022-12-31T01:17:18.795Z,1.63
2022-12-31T01:19:48.161Z,1.53
2022-12-31T01:22:16.156Z,1.57
2022-12-31T01:24:44.138Z,1.33
2022-12-31T01:27:12.169Z,1.27
2022-12-31T01:29:40.193Z,1.37
2022-12-31T01:32:08.106Z,1.30
2022-12-31T01:34:36.083Z,1.73
2022-12-31T01:37:05.428Z,1.27
2022-12-31T01:39:33.397Z,1.43
2022-12-31T01:42:01.380Z,1.33
2022-12-31T01:44:53.274Z,1.23
2022-12-31T01:47:31.594Z,1.20
2022-12-31T01:50:04.616Z,1.23
2022-12-31T01:52:36.789Z,1.27
2022-12-31T01:55:09.696Z,1.10
2022-12-31T01:57:39.309Z,1.10
2022-12-31T02:00:09.956Z,1.77
2022-12-31T02:02:38.081Z,1.77
2022-12-31T02:05:13.496Z,1.23
2022-12-31T02:07:44.107Z,1.20
2022-12-31T02:10:12.294Z,1.30
2022-12-31T02:12:40.847Z,1.60
2022-12-31T02:15:09.752Z,1.53
2022-12-31T02:17:48.425Z,1.80
2022-12-31T02:20:49.645Z,1.80
2022-12-31T02:23:53.746Z,1.50
2022-12-31T02:26:42.991Z,1.50
2022-12-31T02:29:58.135Z,1.70
2022-12-31T02:32:32.784Z,1.77
2022-12-31T02:35:05.746Z,1.70
2022-12-31T02:37:34.881Z,1.13
2022-12-31T02:40:04.187Z,1.50
2022-12-31T02:42:32.280Z,1.33
2022-12-31T02:45:00.261Z,1.23
2022-12-31T02:47:39.687Z,1.73
2022-12-31T02:50:21.333Z,1.87
2022-12-31T02:52:59.991Z,1.30
2022-12-31T02:55:36.395Z,1.80
2022-12-31T02:58:14.621Z,1.27
2022-12-31T03:01:05.328Z,1.20
2022-12-31T03:03:35.533Z,1.20
2022-12-31T03:06:05.404Z,0.90
2022-12-31T03:08:54.156Z,1.30
2022-12-31T03:11:36.102Z,0.97
2022-12-31T03:14:04.052Z,1.10
2022-12-31T03:16:32.210Z,1.40
2022-12-31T03:19:19.205Z,1.17
2022-12-31T03:22:04.719Z,0.70
2022-12-31T03:24:50.351Z,1.30
2022-12-31T03:27:18.375Z,0.83
2022-12-31T03:29:46.382Z,1.20
2022-12-31T03:32:14.434Z,1.20
2022-12-31T03:34:43.746Z,0.77
2022-12-31T03:37:11.724Z,0.90
2022-12-31T03:39:39.842Z,1.47
2022-12-31T03:42:07.855Z,1.20
2022-12-31T03:44:37.508Z,1.00
2022-12-31T03:47:05.838Z,0.87
2022-12-31T03:49:33.849Z,1.10
2022-12-31T03:52:03.564Z,1.13
2022-12-31T03:54:31.598Z,1.20
2022-12-31T03:57:00.425Z,1.50
2022-12-31T03:59:28.664Z,1.00
2022-12-31T04:01:56.778Z,1.10
2022-12-31T04:04:24.870Z,1.60
2022-12-31T04:06:52.885Z,1.53
2022-12-31T04:09:22.260Z,1.30
2022-12-31T04:11:50.264Z,1.33
2022-12-31T04:14:18.420Z,2.03
2022-12-31T04:16:46.662Z,2.20
2022-12-31T04:19:14.783Z,2.80
2022-12-31T04:21:42.875Z,2.77
2022-12-31T04:24:11.265Z,2.50
2022-12-31T04:26:40.951Z,2.30
2022-12-31T04:29:08.882Z,2.53
2022-12-31T04:31:36.868Z,2.87
2022-12-31T04:34:04.946Z,2.87
2022-12-31T04:36:33.469Z,3.20
2022-12-31T04:39:01.420Z,3.80
2022-12-31T04:41:29.366Z,4.17
2022-12-31T04:44:00.145Z,4.60
2022-12-31T04:46:30.467Z,5.93
2022-12-31T04:48:58.935Z,6.73
2022-12-31T04:51:28.317Z,6.43
2022-12-31T04:53:56.590Z,6.97
2022-12-31T04:56:25.071Z,7.40
2022-12-31T04:58:53.163Z,6.83
2022-12-31T05:01:23.117Z,7.20
2022-12-31T05:03:51.717Z,6.53
2022-12-31T05:06:22.968Z,5.60
2022-12-31T05:08:51.713Z,4.93
2022-12-31T05:11:19.890Z,4.00
2022-12-31T05:13:48.039Z,4.43
2022-12-31T05:16:16.564Z,3.97
2022-12-31T05:18:45.919Z,3.40
2022-12-31T05:21:22.003Z,3.50
2022-12-31T05:23:50.408Z,3.30
2022-12-31T05:26:19.049Z,2.83
2022-12-31T05:28:47.040Z,2.47
2022-12-31T05:31:15.124Z,2.70
2022-12-31T05:33:43.181Z,2.00
2022-12-31T05:36:12.615Z,2.30
2022-12-31T05:38:40.613Z,1.53
2022-12-31T05:41:09.537Z,1.60
2022-12-31T05:43:37.582Z,1.20
2022-12-31T05:46:06.338Z,1.30
2022-12-31T05:48:34.349Z,1.13
2022-12-31T05:51:02.331Z,1.20
2022-12-31T05:53:31.652Z,1.13
2022-12-31T05:55:59.620Z,1.20
2022-12-31T05:58:27.581Z,1.00
2022-12-31T06:00:55.507Z,1.00
2022-12-31T06:03:23.617Z,1.00
2022-12-31T06:05:51.557Z,0.80
2022-12-31T06:08:19.530Z,1.00
2022-12-31T06:10:48.919Z,0.90
2022-12-31T06:13:16.831Z,1.33
2022-12-31T06:15:44.890Z,1.37
2022-12-31T06:18:12.867Z,1.00
2022-12-31T06:20:40.815Z,1.00
2022-12-31T06:23:08.852Z,1.10
2022-12-31T06:25:38.007Z,0.93
2022-12-31T06:28:07.625Z,1.10
2022-12-31T06:30:35.610Z,1.30
2022-12-31T06:33:03.651Z,1.17
2022-12-31T06:35:31.585Z,1.00
2022-12-31T06:37:59.813Z,1.13
2022-12-31T06:40:27.926Z,1.77
2022-12-31T06:42:59.896Z,1.50
2022-12-31T06:45:29.867Z,1.10
2022-12-31T06:47:57.928Z,1.00
2022-12-31T06:50:25.907Z,1.00
2022-12-31T06:52:54.037Z,1.13
2022-12-31T06:55:22.678Z,0.80
2022-12-31T06:57:51.075Z,0.60
2022-12-31T07:00:20.541Z,0.40
2022-12-31T07:03:17.526Z,0.70
2022-12-31T07:05:48.184Z,0.50
2022-12-31T07:08:41.234Z,0.60
2022-12-31T07:11:16.437Z,0.73
2022-12-31T07:14:17.494Z,0.70
2022-12-31T07:16:57.456Z,0.70
2022-12-31T07:19:37.587Z,0.60
2022-12-31T07:22:06.779Z,0.80
2022-12-31T07:24:35.282Z,0.50
2022-12-31T07:27:16.096Z,0.60
2022-12-31T07:29:56.961Z,0.80
2022-12-31T07:32:36.548Z,0.90
2022-12-31T07:35:13.926Z,0.53
2022-12-31T07:37:50.443Z,0.90
2022-12-31T07:40:25.166Z,0.83
2022-12-31T07:43:05.585Z,0.80
2022-12-31T07:45:42.117Z,0.93
2022-12-31T07:48:19.586Z,0.43
2022-12-31T07:50:49.792Z,0.70
2022-12-31T07:53:18.242Z,0.93
2022-12-31T07:55:46.324Z,0.60
2022-12-31T07:58:25.219Z,0.90
2022-12-31T08:00:55.326Z,1.27
2022-12-31T08:03:39.173Z,0.80
2022-12-31T08:06:16.278Z,1.00
2022-12-31T08:08:52.725Z,1.10
2022-12-31T08:11:29.210Z,0.90
2022-12-31T08:14:01.605Z,1.10
2022-12-31T08:16:30.898Z,1.23
2022-12-31T08:18:59.660Z,0.97
2022-12-31T08:21:40.647Z,1.03
2022-12-31T08:24:17.373Z,1.00
2022-12-31T08:26:53.957Z,0.83
2022-12-31T08:29:36.762Z,1.20
2022-12-31T08:32:14.001Z,1.23
2022-12-31T08:34:53.691Z,0.87
2022-12-31T08:37:33.865Z,1.43
2022-12-31T08:40:13.934Z,1.13
2022-12-31T08:42:51.027Z,1.10
2022-12-31T08:45:25.048Z,1.30
2022-12-31T08:48:00.551Z,1.40
2022-12-31T08:50:29.373Z,2.07
2022-12-31T08:52:59.593Z,2.00
2022-12-31T08:55:28.447Z,1.87
2022-12-31T08:58:09.479Z,1.63
2022-12-31T09:00:38.788Z,2.20
2022-12-31T09:03:27.155Z,1.50
2022-12-31T09:06:03.393Z,1.97
2022-12-31T09:08:41.437Z,1.67
2022-12-31T09:11:20.872Z,1.30
2022-12-31T09:14:08.073Z,1.30
2022-12-31T09:16:47.962Z,2.03
2022-12-31T09:19:15.953Z,1.30
2022-12-31T09:21:45.555Z,1.67
2022-12-31T09:24:16.513Z,1.83
2022-12-31T09:26:56.587Z,2.00
2022-12-31T09:29:36.609Z,1.93
2022-12-31T09:32:10.660Z,2.00
2022-12-31T09:34:44.428Z,2.30
2022-12-31T09:37:16.745Z,1.80
2022-12-31T09:39:47.817Z,2.10
2022-12-31T09:42:38.092Z,1.73
2022-12-31T09:45:31.981Z,1.90
2022-12-31T09:48:29.846Z,1.77
2022-12-31T09:51:32.069Z,1.67
2022-12-31T09:54:20.427Z,1.30
2022-12-31T09:57:05.977Z,1.30
2022-12-31T09:59:41.663Z,1.33
2022-12-31T10:02:21.367Z,1.60
2022-12-31T10:05:21.862Z,1.40
2022-12-31T10:08:00.355Z,1.77
2022-12-31T10:10:35.635Z,1.43
2022-12-31T10:13:17.297Z,1.60
2022-12-31T10:16:16.837Z,1.50
2022-12-31T10:18:59.205Z,1.57
2022-12-31T10:21:43.358Z,2.10
2022-12-31T10:24:55.559Z,1.57
2022-12-31T10:27:38.748Z,1.60
2022-12-31T10:30:16.238Z,1.30
2022-12-31T10:32:46.363Z,1.63
2022-12-31T10:35:26.072Z,1.73
2022-12-31T10:38:02.151Z,2.60
2022-12-31T10:40:46.090Z,2.33
2022-12-31T10:43:41.471Z,1.87
2022-12-31T10:46:39.222Z,1.43
2022-12-31T10:49:49.258Z,1.80
2022-12-31T10:52:44.600Z,1.90
2022-12-31T10:55:34.578Z,8.10
2022-12-31T10:58:29.516Z,3.67
2022-12-31T11:01:08.413Z,3.93
2022-12-31T11:04:12.127Z,1.10
2022-12-31T11:07:13.966Z,6.83
2022-12-31T11:10:00.603Z,4.00
2022-12-31T11:12:48.753Z,1.53
2022-12-31T11:15:35.203Z,1.30
2022-12-31T11:18:19.188Z,1.87
2022-12-31T11:21:07.935Z,3.03
2022-12-31T11:23:48.357Z,44.33
2022-12-31T11:26:26.167Z,2.87
2022-12-31T11:29:06.229Z,1.23
2022-12-31T11:31:58.071Z,1.53
2022-12-31T11:34:52.695Z,2.20
2022-12-31T11:37:32.337Z,2.17
2022-12-31T11:40:16.528Z,1.80
2022-12-31T11:42:52.899Z,1.70
2022-12-31T11:45:38.651Z,2.13
2022-12-31T11:48:32.434Z,2.07
2022-12-31T11:51:16.420Z,2.43
2022-12-31T11:54:15.805Z,1.83
2022-12-31T11:56:52.214Z,2.43
2022-12-31T11:59:20.258Z,2.00
2022-12-31T12:01:53.656Z,2.50
2022-12-31T12:04:21.714Z,2.00
2022-12-31T12:06:49.861Z,1.70
2022-12-31T12:09:26.481Z,1.47
2022-12-31T12:12:02.014Z,1.63
2022-12-31T12:14:33.551Z,2.17
2022-12-31T12:17:05.426Z,2.03
2022-12-31T12:19:35.424Z,1.93
2022-12-31T12:22:12.355Z,2.67
2022-12-31T12:24:40.392Z,2.97
2022-12-31T12:27:23.203Z,3.13
2022-12-31T12:29:51.146Z,3.20
2022-12-31T12:32:22.240Z,2.87
2022-12-31T12:34:50.424Z,2.60
2022-12-31T12:37:28.643Z,2.20
2022-12-31T12:39:58.382Z,2.40
2022-12-31T12:42:28.748Z,2.40
2022-12-31T12:45:05.816Z,1.70
2022-12-31T12:47:35.226Z,1.67
2022-12-31T12:50:04.362Z,2.20
2022-12-31T12:52:57.788Z,2.20
2022-12-31T12:55:34.553Z,2.40
2022-12-31T12:58:17.162Z,2.38
2022-12-31T13:00:52.897Z,2.30
2022-12-31T13:04:32.596Z,2.47
2022-12-31T13:06:59.569Z,2.63
2022-12-31T13:09:38.339Z,1.80
2022-12-31T13:12:15.854Z,2.00
2022-12-31T13:14:54.440Z,1.90
2022-12-31T13:17:36.914Z,1.93
2022-12-31T13:20:12.024Z,1.70
2022-12-31T13:22:44.377Z,1.97
2022-12-31T13:25:23.488Z,2.00
2022-12-31T13:27:54.931Z,2.17
2022-12-31T13:30:28.483Z,2.67
2022-12-31T13:33:03.070Z,2.20
2022-12-31T13:35:34.949Z,2.27
2022-12-31T13:38:06.807Z,1.97
2022-12-31T13:40:45.919Z,2.38
2022-12-31T13:43:20.808Z,2.40
2022-12-31T13:46:00.182Z,2.50
2022-12-31T13:48:35.494Z,2.00
2022-12-31T13:51:11.823Z,1.53
2022-12-31T13:53:46.848Z,1.60
2022-12-31T13:56:20.156Z,1.90
2022-12-31T13:58:53.201Z,1.33
2022-12-31T14:01:33.836Z,1.63
2022-12-31T14:04:09.871Z,1.67
2022-12-31T14:06:44.495Z,1.63
2022-12-31T14:09:20.626Z,5.90
2022-12-31T14:12:02.150Z,2.00
2022-12-31T14:14:42.164Z,1.50
2022-12-31T14:17:19.065Z,1.37
2022-12-31T14:20:03.735Z,1.60
2022-12-31T14:22:38.824Z,2.87
2022-12-31T14:25:18.796Z,2.40
2022-12-31T14:27:48.329Z,2.73
2022-12-31T14:30:18.931Z,2.00
2022-12-31T14:33:01.218Z,2.67
2022-12-31T14:35:40.354Z,2.67
2022-12-31T14:38:18.163Z,2.23
2022-12-31T14:40:55.703Z,2.47
2022-12-31T14:43:35.416Z,2.63
2022-12-31T14:46:13.557Z,3.30
2022-12-31T14:48:53.390Z,3.77
2022-12-31T14:51:21.393Z,3.97
2022-12-31T14:53:54.513Z,3.17
2022-12-31T14:56:31.092Z,2.90
2022-12-31T14:59:00.768Z,3.30
2022-12-31T15:01:29.656Z,2.90
2022-12-31T15:03:59.549Z,2.60
2022-12-31T15:06:51.851Z,2.30
2022-12-31T15:09:35.652Z,2.50
2022-12-31T15:12:17.802Z,3.83
2022-12-31T15:15:16.113Z,4.00
2022-12-31T15:17:55.063Z,4.17
2022-12-31T15:20:51.271Z,3.53
2022-12-31T15:23:23.319Z,6.90
2022-12-31T15:25:57.313Z,4.40
2022-12-31T15:28:35.790Z,4.40
2022-12-31T15:31:10.739Z,4.17
2022-12-31T15:33:42.999Z,5.00
2022-12-31T15:36:16.759Z,5.77
2022-12-31T15:38:45.395Z,7.73
2022-12-31T15:41:27.528Z,6.77
2022-12-31T15:44:01.477Z,5.73
2022-12-31T15:46:32.564Z,5.60
2022-12-31T15:49:07.888Z,5.43
2022-12-31T15:51:47.485Z,5.40
2022-12-31T15:54:25.258Z,4.30
2022-12-31T15:56:55.029Z,4.57
2022-12-31T15:59:26.096Z,6.97
2022-12-31T16:01:57.057Z,7.77
2022-12-31T16:04:27.591Z,10.87
2022-12-31T16:07:01.340Z,10.07
2022-12-31T16:09:31.433Z,9.53
2022-12-31T16:12:01.277Z,8.85
2022-12-31T16:14:36.117Z,5.03
2022-12-31T16:17:05.013Z,5.80
2022-12-31T16:19:36.642Z,7.68
2022-12-31T16:22:14.609Z,6.90
2022-12-31T16:25:10.800Z,8.40
2022-12-31T16:27:34.630Z,9.03
2022-12-31T16:30:07.420Z,20.27
2022-12-31T16:32:36.275Z,7.00
2022-12-31T16:35:10.093Z,6.03
2022-12-31T16:37:44.752Z,5.13
2022-12-31T16:40:22.184Z,5.67
2022-12-31T16:42:51.775Z,6.83
2022-12-31T16:45:36.324Z,5.90
2022-12-31T16:48:16.585Z,6.10
2022-12-31T16:50:46.305Z,6.43
2022-12-31T16:53:19.281Z,6.70
2022-12-31T16:55:54.343Z,4.87
2022-12-31T16:58:28.025Z,4.50
2022-12-31T17:01:02.331Z,4.13
2022-12-31T17:03:30.753Z,4.63
2022-12-31T17:06:13.697Z,3.77
2022-12-31T17:08:45.207Z,5.47
2022-12-31T17:11:23.559Z,4.13
2022-12-31T17:13:57.192Z,3.90
2022-12-31T17:16:26.279Z,3.20
2022-12-31T17:18:54.507Z,4.47
2022-12-31T17:21:26.264Z,3.73
2022-12-31T17:23:58.776Z,5.47
2022-12-31T17:26:29.629Z,7.17
2022-12-31T17:28:59.656Z,4.07
2022-12-31T17:31:31.082Z,4.90
2022-12-31T17:34:22.073Z,5.93
2022-12-31T17:37:00.326Z,4.43
2022-12-31T17:39:43.407Z,4.57
2022-12-31T17:42:12.975Z,4.60
2022-12-31T17:44:44.120Z,4.87
2022-12-31T17:47:14.270Z,5.70
2022-12-31T17:49:45.892Z,4.80
2022-12-31T17:52:15.538Z,8.83
2022-12-31T17:54:45.019Z,6.10
2022-12-31T17:57:25.554Z,7.10
2022-12-31T17:59:53.811Z,8.23
2022-12-31T18:02:21.815Z,5.40
2022-12-31T18:04:49.878Z,14.47
2022-12-31T18:07:17.878Z,5.20
2022-12-31T18:09:47.284Z,4.93
2022-12-31T18:12:16.512Z,5.73
2022-12-31T18:14:46.921Z,5.87
2022-12-31T18:17:17.272Z,8.57
2022-12-31T18:20:04.112Z,9.33
2022-12-31T18:22:33.524Z,14.07
2022-12-31T18:25:03.069Z,13.03
2022-12-31T18:27:32.379Z,5.93
2022-12-31T18:30:04.858Z,4.07
2022-12-31T18:32:34.697Z,14.97
2022-12-31T18:35:03.257Z,4.90
2022-12-31T18:37:32.243Z,3.83
2022-12-31T18:40:00.245Z,5.90
2022-12-31T18:42:29.968Z,6.17
2022-12-31T18:44:57.961Z,4.40
2022-12-31T18:47:25.938Z,3.93
2022-12-31T18:49:53.893Z,3.43
2022-12-31T18:52:25.121Z,3.20
2022-12-31T18:54:53.191Z,3.13
2022-12-31T18:57:21.148Z,3.97
2022-12-31T18:59:50.568Z,4.23
2022-12-31T19:02:21.034Z,7.97
2022-12-31T19:04:49.321Z,5.47
2022-12-31T19:07:17.704Z,5.60
2022-12-31T19:09:47.150Z,3.70
2022-12-31T19:12:16.426Z,4.07
2022-12-31T19:14:45.490Z,4.37
2022-12-31T19:17:14.905Z,3.77
2022-12-31T19:19:43.139Z,3.80
2022-12-31T19:22:15.740Z,4.13
2022-12-31T19:24:43.795Z,3.83
2022-12-31T19:27:12.149Z,4.23
2022-12-31T19:29:40.314Z,4.77
2022-12-31T19:32:08.516Z,6.57
2022-12-31T19:34:38.001Z,8.00
2022-12-31T19:37:06.170Z,5.90
2022-12-31T19:39:34.409Z,5.60
2022-12-31T19:42:02.631Z,5.10
2022-12-31T19:44:30.691Z,5.43
2022-12-31T19:47:01.390Z,9.63
2022-12-31T19:49:29.764Z,10.63
2022-12-31T19:51:59.595Z,5.53
2022-12-31T19:54:27.690Z,6.13
2022-12-31T19:56:55.773Z,7.87
2022-12-31T19:59:23.903Z,6.73
2022-12-31T20:01:52.179Z,5.13
2022-12-31T20:04:21.702Z,6.23
2022-12-31T20:06:50.000Z,5.60
2022-12-31T20:09:19.700Z,7.13
2022-12-31T20:11:47.893Z,5.90
2022-12-31T20:14:16.477Z,7.03
2022-12-31T20:16:44.999Z,8.83
2022-12-31T20:19:13.247Z,6.03
2022-12-31T20:21:41.926Z,5.20
2022-12-31T20:24:10.164Z,5.83
2022-12-31T20:26:39.996Z,6.40
2022-12-31T20:29:08.627Z,5.70
2022-12-31T20:31:37.086Z,5.87
2022-12-31T20:34:05.209Z,6.00
2022-12-31T20:36:33.797Z,6.20
2022-12-31T20:39:01.841Z,5.40
2022-12-31T20:41:32.199Z,5.73
2022-12-31T20:44:01.992Z,6.93
2022-12-31T20:46:31.672Z,9.47
2022-12-31T20:49:02.899Z,7.10
2022-12-31T20:51:34.881Z,7.43
2022-12-31T20:54:05.704Z,15.23
2022-12-31T20:56:36.047Z,6.00
2022-12-31T20:59:06.578Z,5.67
2022-12-31T21:01:55.587Z,6.17
2022-12-31T21:04:23.090Z,4.40
2022-12-31T21:06:54.884Z,5.93
2022-12-31T21:09:23.009Z,6.43
2022-12-31T21:12:08.859Z,7.67
2022-12-31T21:14:42.925Z,8.13
2022-12-31T21:17:12.992Z,10.00
2022-12-31T21:19:41.090Z,8.40
2022-12-31T21:22:09.329Z,5.67
2022-12-31T21:24:39.286Z,4.70
2022-12-31T21:27:07.527Z,5.13
2022-12-31T21:29:55.731Z,4.53
2022-12-31T21:32:28.433Z,5.77
2022-12-31T21:35:31.522Z,5.53
2022-12-31T21:37:58.590Z,6.10
2022-12-31T21:40:29.018Z,5.63
2022-12-31T21:42:56.990Z,5.03
2022-12-31T21:45:26.415Z,5.90
2022-12-31T21:48:11.832Z,5.77
2022-12-31T21:50:39.858Z,5.80
2022-12-31T21:53:07.774Z,5.93
2022-12-31T21:55:56.763Z,5.43
2022-12-31T21:58:27.026Z,5.13
2022-12-31T22:01:15.946Z,5.77
2022-12-31T22:03:44.396Z,7.27
2022-12-31T22:06:16.454Z,6.27
2022-12-31T22:08:45.853Z,5.80
2022-12-31T22:11:15.148Z,5.23
2022-12-31T22:13:44.105Z,7.17
2022-12-31T22:16:14.195Z,9.60
2022-12-31T22:18:44.157Z,5.83
2022-12-31T22:21:19.029Z,6.00
2022-12-31T22:23:49.451Z,7.90
2022-12-31T22:26:20.059Z,7.87
2022-12-31T22:28:49.012Z,7.70
2022-12-31T22:31:19.902Z,8.10
2022-12-31T22:33:48.876Z,4.23
2022-12-31T22:36:19.699Z,5.37
2022-12-31T22:38:47.900Z,11.70
2022-12-31T22:41:17.903Z,6.17
2022-12-31T22:43:48.102Z,4.83
2022-12-31T22:46:20.162Z,5.90
2022-12-31T22:48:48.635Z,6.23
2022-12-31T22:51:17.554Z,6.60
2022-12-31T22:53:46.358Z,6.03
2022-12-31T22:56:16.528Z,10.40
2022-12-31T22:58:45.230Z,5.97
2022-12-31T23:01:20.314Z,9.10
2022-12-31T23:03:49.333Z,12.03
2022-12-31T23:06:17.854Z,18.43
2022-12-31T23:09:06.737Z,39.33
2022-12-31T23:11:39.005Z,38.33
2022-12-31T23:14:25.790Z,41.30
2022-12-31T23:17:31.514Z,65.43
2022-12-31T23:20:17.862Z,57.20
2022-12-31T23:23:03.799Z,50.23
2022-12-31T23:25:32.867Z,68.90
2022-12-31T23:28:00.964Z,64.13
2022-12-31T23:30:28.997Z,101.50
2022-12-31T23:32:58.353Z,62.77
2022-12-31T23:35:26.411Z,83.30
2022-12-31T23:37:54.333Z,77.57
2022-12-31T23:40:22.468Z,63.47
2022-12-31T23:42:50.742Z,58.93
2022-12-31T23:45:18.971Z,56.83
2022-12-31T23:47:47.033Z,51.80
2022-12-31T23:50:16.401Z,50.07
2022-12-31T23:52:44.326Z,47.40
2022-12-31T23:55:12.474Z,40.83
2022-12-31T23:57:40.472Z,32.93
